sensor_id;sensor_type;location;lat;lon;timestamp;temperature;humidity
7720;DHT22;3902;49.474;8.616;2024-03-02T00:00:22;8.80;99.90
7720;DHT22;3902;49.474;8.616;2024-03-02T00:02:49;8.80;99.90
7720;DHT22;3902;49.474;8.616;2024-03-02T00:05:17;8.80;99.90
7720;DHT22;3902;49.474;8.616;2024-03-02T00:07:44;8.80;99.90
7720;DHT22;3902;49.474;8.616;2024-03-02T00:10:11;8.80;99.90
7720;DHT22;3902;49.474;8.616;2024-03-02T00:12:38;8.80;99.90
7720;DHT22;3902;49.474;8.616;2024-03-02T00:15:42;8.80;99.90
7720;DHT22;3902;49.474;8.616;2024-03-02T00:18:12;8.80;99.90
7720;DHT22;3902;49.474;8.616;2024-03-02T00:20:39;8.70;99.90
7720;DHT22;3902;49.474;8.616;2024-03-02T00:23:06;8.70;99.90
7720;DHT22;3902;49.474;8.616;2024-03-02T00:25:52;8.70;99.90
7720;DHT22;3902;49.474;8.616;2024-03-02T00:28:35;8.70;99.90
7720;DHT22;3902;49.474;8.616;2024-03-02T00:33:37;8.60;99.90
7720;DHT22;3902;49.474;8.616;2024-03-02T00:36:03;8.60;99.90
7720;DHT22;3902;49.474;8.616;2024-03-02T00:38:30;8.60;99.90
7720;DHT22;3902;49.474;8.616;2024-03-02T00:40:58;8.60;99.90
7720;DHT22;3902;49.474;8.616;2024-03-02T00:43:41;8.60;99.90
7720;DHT22;3902;49.474;8.616;2024-03-02T00:46:07;8.50;99.90
7720;DHT22;3902;49.474;8.616;2024-03-02T00:48:33;8.50;99.90
7720;DHT22;3902;49.474;8.616;2024-03-02T00:51:05;8.50;99.90
7720;DHT22;3902;49.474;8.616;2024-03-02T00:53:31;8.50;99.90
7720;DHT22;3902;49.474;8.616;2024-03-02T00:55:58;8.50;99.90
7720;DHT22;3902;49.474;8.616;2024-03-02T00:58:25;8.50;99.90
7720;DHT22;3902;49.474;8.616;2024-03-02T01:00:50;8.50;99.90
7720;DHT22;3902;49.474;8.616;2024-03-02T01:03:16;8.50;99.90
7720;DHT22;3902;49.474;8.616;2024-03-02T01:05:42;8.40;99.90
7720;DHT22;3902;49.474;8.616;2024-03-02T01:08:08;8.40;99.90
7720;DHT22;3902;49.474;8.616;2024-03-02T01:10:34;8.40;99.90
7720;DHT22;3902;49.474;8.616;2024-03-02T01:12:59;8.40;99.90
7720;DHT22;3902;49.474;8.616;2024-03-02T01:15:25;8.40;99.90
7720;DHT22;3902;49.474;8.616;2024-03-02T01:17:51;8.40;99.90
7720;DHT22;3902;49.474;8.616;2024-03-02T01:20:16;8.40;99.90
7720;DHT22;3902;49.474;8.616;2024-03-02T01:22:42;8.40;99.90
7720;DHT22;3902;49.474;8.616;2024-03-02T01:25:08;8.40;99.90
7720;DHT22;3902;49.474;8.616;2024-03-02T01:27:34;8.40;99.90
7720;DHT22;3902;49.474;8.616;2024-03-02T01:29:59;8.30;99.90
7720;DHT22;3902;49.474;8.616;2024-03-02T01:32:25;8.20;99.90
7720;DHT22;3902;49.474;8.616;2024-03-02T01:34:51;8.20;99.90
7720;DHT22;3902;49.474;8.616;2024-03-02T01:37:16;8.20;99.90
7720;DHT22;3902;49.474;8.616;2024-03-02T01:39:42;8.20;99.90
7720;DHT22;3902;49.474;8.616;2024-03-02T01:42:07;8.20;99.90
7720;DHT22;3902;49.474;8.616;2024-03-02T01:44:33;8.20;99.90
7720;DHT22;3902;49.474;8.616;2024-03-02T01:46:59;8.20;99.90
7720;DHT22;3902;49.474;8.616;2024-03-02T01:49:24;8.20;99.90
7720;DHT22;3902;49.474;8.616;2024-03-02T01:51:50;8.20;99.90
7720;DHT22;3902;49.474;8.616;2024-03-02T01:54:15;8.20;99.90
7720;DHT22;3902;49.474;8.616;2024-03-02T01:56:41;8.20;99.90
7720;DHT22;3902;49.474;8.616;2024-03-02T01:59:07;8.20;99.90
7720;DHT22;3902;49.474;8.616;2024-03-02T02:01:32;8.20;99.90
7720;DHT22;3902;49.474;8.616;2024-03-02T02:03:58;8.20;99.90
7720;DHT22;3902;49.474;8.616;2024-03-02T02:06:24;8.10;99.90
7720;DHT22;3902;49.474;8.616;2024-03-02T02:08:49;8.10;99.90
7720;DHT22;3902;49.474;8.616;2024-03-02T02:11:16;8.10;99.90
7720;DHT22;3902;49.474;8.616;2024-03-02T02:13:41;8.00;99.90
7720;DHT22;3902;49.474;8.616;2024-03-02T02:16:07;8.00;99.90
7720;DHT22;3902;49.474;8.616;2024-03-02T02:18:34;8.00;99.90
7720;DHT22;3902;49.474;8.616;2024-03-02T02:21:00;8.00;99.90
7720;DHT22;3902;49.474;8.616;2024-03-02T02:23:26;7.90;99.90
7720;DHT22;3902;49.474;8.616;2024-03-02T02:25:51;7.90;99.90
7720;DHT22;3902;49.474;8.616;2024-03-02T02:28:17;7.90;99.90
7720;DHT22;3902;49.474;8.616;2024-03-02T02:30:42;7.90;99.90
7720;DHT22;3902;49.474;8.616;2024-03-02T02:33:08;7.90;99.90
7720;DHT22;3902;49.474;8.616;2024-03-02T02:35:34;7.90;99.90
7720;DHT22;3902;49.474;8.616;2024-03-02T02:38:00;7.90;99.90
7720;DHT22;3902;49.474;8.616;2024-03-02T02:40:26;7.90;99.90
7720;DHT22;3902;49.474;8.616;2024-03-02T02:42:52;7.90;99.90
7720;DHT22;3902;49.474;8.616;2024-03-02T02:45:17;7.90;99.90
7720;DHT22;3902;49.474;8.616;2024-03-02T02:47:44;7.80;99.90
7720;DHT22;3902;49.474;8.616;2024-03-02T02:50:10;7.80;99.90
7720;DHT22;3902;49.474;8.616;2024-03-02T02:52:38;7.80;99.90
7720;DHT22;3902;49.474;8.616;2024-03-02T02:55:09;7.70;99.90
7720;DHT22;3902;49.474;8.616;2024-03-02T02:57:35;7.70;99.90
7720;DHT22;3902;49.474;8.616;2024-03-02T03:00:07;7.70;99.90
7720;DHT22;3902;49.474;8.616;2024-03-02T03:02:42;7.70;99.90
7720;DHT22;3902;49.474;8.616;2024-03-02T03:05:09;7.70;99.90
7720;DHT22;3902;49.474;8.616;2024-03-02T03:07:35;7.70;99.90
7720;DHT22;3902;49.474;8.616;2024-03-02T03:10:02;7.80;99.90
7720;DHT22;3902;49.474;8.616;2024-03-02T03:12:28;7.80;99.90
7720;DHT22;3902;49.474;8.616;2024-03-02T03:14:55;7.70;99.90
7720;DHT22;3902;49.474;8.616;2024-03-02T03:17:21;7.70;99.90
7720;DHT22;3902;49.474;8.616;2024-03-02T03:19:47;7.70;99.90
7720;DHT22;3902;49.474;8.616;2024-03-02T03:22:12;7.60;99.90
7720;DHT22;3902;49.474;8.616;2024-03-02T03:24:38;7.60;99.90
7720;DHT22;3902;49.474;8.616;2024-03-02T03:27:04;7.60;99.90
7720;DHT22;3902;49.474;8.616;2024-03-02T03:29:29;7.60;99.90
7720;DHT22;3902;49.474;8.616;2024-03-02T03:31:55;7.60;99.90
7720;DHT22;3902;49.474;8.616;2024-03-02T03:34:20;7.60;99.90
7720;DHT22;3902;49.474;8.616;2024-03-02T03:36:46;7.60;99.90
7720;DHT22;3902;49.474;8.616;2024-03-02T03:39:11;7.60;99.90
7720;DHT22;3902;49.474;8.616;2024-03-02T03:41:37;7.60;99.90
7720;DHT22;3902;49.474;8.616;2024-03-02T03:44:03;7.60;99.90
7720;DHT22;3902;49.474;8.616;2024-03-02T03:46:29;7.60;99.90
7720;DHT22;3902;49.474;8.616;2024-03-02T03:48:54;7.60;99.90
7720;DHT22;3902;49.474;8.616;2024-03-02T03:51:21;7.60;99.90
7720;DHT22;3902;49.474;8.616;2024-03-02T03:53:48;7.50;99.90
7720;DHT22;3902;49.474;8.616;2024-03-02T03:56:13;7.50;99.90
7720;DHT22;3902;49.474;8.616;2024-03-02T03:58:39;7.50;99.90
7720;DHT22;3902;49.474;8.616;2024-03-02T04:01:04;7.50;99.90
7720;DHT22;3902;49.474;8.616;2024-03-02T04:03:30;7.50;99.90
7720;DHT22;3902;49.474;8.616;2024-03-02T04:05:56;7.50;99.90
7720;DHT22;3902;49.474;8.616;2024-03-02T04:08:21;7.40;99.90
7720;DHT22;3902;49.474;8.616;2024-03-02T04:10:47;7.40;99.90
7720;DHT22;3902;49.474;8.616;2024-03-02T04:13:12;7.40;99.90
7720;DHT22;3902;49.474;8.616;2024-03-02T04:15:38;7.40;99.90
7720;DHT22;3902;49.474;8.616;2024-03-02T04:18:04;7.50;99.90
7720;DHT22;3902;49.474;8.616;2024-03-02T04:20:29;7.50;99.90
7720;DHT22;3902;49.474;8.616;2024-03-02T04:22:55;7.50;99.90
7720;DHT22;3902;49.474;8.616;2024-03-02T04:25:21;7.50;99.90
7720;DHT22;3902;49.474;8.616;2024-03-02T04:27:46;7.40;99.90
7720;DHT22;3902;49.474;8.616;2024-03-02T04:30:12;7.40;99.90
7720;DHT22;3902;49.474;8.616;2024-03-02T04:32:38;7.40;99.90
7720;DHT22;3902;49.474;8.616;2024-03-02T04:35:04;7.40;99.90
7720;DHT22;3902;49.474;8.616;2024-03-02T04:37:31;7.40;99.90
7720;DHT22;3902;49.474;8.616;2024-03-02T04:39:57;7.40;99.90
7720;DHT22;3902;49.474;8.616;2024-03-02T04:42:22;7.40;99.90
7720;DHT22;3902;49.474;8.616;2024-03-02T04:44:48;7.50;99.90
7720;DHT22;3902;49.474;8.616;2024-03-02T04:47:14;7.50;99.90
7720;DHT22;3902;49.474;8.616;2024-03-02T04:49:39;7.50;99.90
7720;DHT22;3902;49.474;8.616;2024-03-02T04:52:05;7.50;99.90
7720;DHT22;3902;49.474;8.616;2024-03-02T04:54:30;7.50;99.90
7720;DHT22;3902;49.474;8.616;2024-03-02T04:56:56;7.50;99.90
7720;DHT22;3902;49.474;8.616;2024-03-02T04:59:21;7.60;99.90
7720;DHT22;3902;49.474;8.616;2024-03-02T05:01:47;7.60;99.90
7720;DHT22;3902;49.474;8.616;2024-03-02T05:04:13;7.60;99.90
7720;DHT22;3902;49.474;8.616;2024-03-02T05:06:39;7.50;99.90
7720;DHT22;3902;49.474;8.616;2024-03-02T05:09:08;7.50;99.90
7720;DHT22;3902;49.474;8.616;2024-03-02T05:11:34;7.50;99.90
7720;DHT22;3902;49.474;8.616;2024-03-02T05:14:02;7.40;99.90
7720;DHT22;3902;49.474;8.616;2024-03-02T05:16:28;7.30;99.90
7720;DHT22;3902;49.474;8.616;2024-03-02T05:18:53;7.30;99.90
7720;DHT22;3902;49.474;8.616;2024-03-02T05:21:19;7.30;99.90
7720;DHT22;3902;49.474;8.616;2024-03-02T05:23:45;7.30;99.90
7720;DHT22;3902;49.474;8.616;2024-03-02T05:26:10;7.30;99.90
7720;DHT22;3902;49.474;8.616;2024-03-02T05:28:38;7.20;99.90
7720;DHT22;3902;49.474;8.616;2024-03-02T05:31:04;7.20;99.90
7720;DHT22;3902;49.474;8.616;2024-03-02T05:33:30;7.30;99.90
7720;DHT22;3902;49.474;8.616;2024-03-02T05:35:57;7.30;99.90
7720;DHT22;3902;49.474;8.616;2024-03-02T05:38:22;7.30;99.90
7720;DHT22;3902;49.474;8.616;2024-03-02T05:40:48;7.30;99.90
7720;DHT22;3902;49.474;8.616;2024-03-02T05:43:13;7.40;99.90
7720;DHT22;3902;49.474;8.616;2024-03-02T05:45:39;7.30;99.90
7720;DHT22;3902;49.474;8.616;2024-03-02T05:48:06;7.40;99.90
7720;DHT22;3902;49.474;8.616;2024-03-02T05:50:33;7.40;99.90
7720;DHT22;3902;49.474;8.616;2024-03-02T05:52:58;7.40;99.90
7720;DHT22;3902;49.474;8.616;2024-03-02T05:55:24;7.40;99.90
7720;DHT22;3902;49.474;8.616;2024-03-02T05:57:50;7.40;99.90
7720;DHT22;3902;49.474;8.616;2024-03-02T06:00:34;7.30;99.90
7720;DHT22;3902;49.474;8.616;2024-03-02T06:02:59;7.30;99.90
7720;DHT22;3902;49.474;8.616;2024-03-02T06:05:25;7.30;99.90
7720;DHT22;3902;49.474;8.616;2024-03-02T06:07:50;7.20;99.90
7720;DHT22;3902;49.474;8.616;2024-03-02T06:10:16;7.20;99.90
7720;DHT22;3902;49.474;8.616;2024-03-02T06:12:43;7.20;99.90
7720;DHT22;3902;49.474;8.616;2024-03-02T06:15:09;7.20;99.90
7720;DHT22;3902;49.474;8.616;2024-03-02T06:17:35;7.20;99.90
7720;DHT22;3902;49.474;8.616;2024-03-02T06:20:01;7.10;99.90
7720;DHT22;3902;49.474;8.616;2024-03-02T06:22:26;7.10;99.90
7720;DHT22;3902;49.474;8.616;2024-03-02T06:24:52;7.10;99.90
7720;DHT22;3902;49.474;8.616;2024-03-02T06:27:17;7.10;99.90
7720;DHT22;3902;49.474;8.616;2024-03-02T06:29:43;7.10;99.90
7720;DHT22;3902;49.474;8.616;2024-03-02T06:32:08;7.00;99.90
7720;DHT22;3902;49.474;8.616;2024-03-02T06:34:34;7.00;99.90
7720;DHT22;3902;49.474;8.616;2024-03-02T06:36:59;7.00;99.90
7720;DHT22;3902;49.474;8.616;2024-03-02T06:39:25;6.90;99.90
7720;DHT22;3902;49.474;8.616;2024-03-02T06:41:51;6.90;99.90
7720;DHT22;3902;49.474;8.616;2024-03-02T06:44:16;7.00;99.90
7720;DHT22;3902;49.474;8.616;2024-03-02T06:46:42;7.00;99.90
7720;DHT22;3902;49.474;8.616;2024-03-02T06:49:07;7.00;99.90
7720;DHT22;3902;49.474;8.616;2024-03-02T06:51:35;6.90;99.90
7720;DHT22;3902;49.474;8.616;2024-03-02T06:54:00;7.00;99.90
7720;DHT22;3902;49.474;8.616;2024-03-02T06:56:26;7.00;99.90
7720;DHT22;3902;49.474;8.616;2024-03-02T06:58:51;6.90;99.90
7720;DHT22;3902;49.474;8.616;2024-03-02T07:01:17;7.00;99.90
7720;DHT22;3902;49.474;8.616;2024-03-02T07:03:43;7.00;99.90
7720;DHT22;3902;49.474;8.616;2024-03-02T07:06:09;7.00;99.90
7720;DHT22;3902;49.474;8.616;2024-03-02T07:08:34;7.00;99.90
7720;DHT22;3902;49.474;8.616;2024-03-02T07:11:00;6.90;99.90
7720;DHT22;3902;49.474;8.616;2024-03-02T07:13:26;7.00;99.90
7720;DHT22;3902;49.474;8.616;2024-03-02T07:15:52;6.90;99.90
7720;DHT22;3902;49.474;8.616;2024-03-02T07:18:32;6.90;99.90
7720;DHT22;3902;49.474;8.616;2024-03-02T07:21:06;6.90;99.90
7720;DHT22;3902;49.474;8.616;2024-03-02T07:23:32;6.90;99.90
7720;DHT22;3902;49.474;8.616;2024-03-02T07:25:58;6.90;99.90
7720;DHT22;3902;49.474;8.616;2024-03-02T07:28:25;7.00;99.90
7720;DHT22;3902;49.474;8.616;2024-03-02T07:31:01;7.00;99.90
7720;DHT22;3902;49.474;8.616;2024-03-02T07:33:27;6.90;99.90
7720;DHT22;3902;49.474;8.616;2024-03-02T07:35:54;7.00;99.90
7720;DHT22;3902;49.474;8.616;2024-03-02T07:38:19;7.00;99.90
7720;DHT22;3902;49.474;8.616;2024-03-02T07:40:45;7.00;99.90
7720;DHT22;3902;49.474;8.616;2024-03-02T07:43:11;7.00;99.90
7720;DHT22;3902;49.474;8.616;2024-03-02T07:45:36;7.00;99.90
7720;DHT22;3902;49.474;8.616;2024-03-02T07:48:02;7.10;99.90
7720;DHT22;3902;49.474;8.616;2024-03-02T07:50:30;7.10;99.90
7720;DHT22;3902;49.474;8.616;2024-03-02T07:52:56;7.20;99.90
7720;DHT22;3902;49.474;8.616;2024-03-02T07:55:21;7.30;99.90
7720;DHT22;3902;49.474;8.616;2024-03-02T07:57:49;7.30;99.90
7720;DHT22;3902;49.474;8.616;2024-03-02T08:00:15;7.40;99.90
7720;DHT22;3902;49.474;8.616;2024-03-02T08:02:41;7.40;99.90
7720;DHT22;3902;49.474;8.616;2024-03-02T08:05:08;7.50;99.90
7720;DHT22;3902;49.474;8.616;2024-03-02T08:07:34;7.50;99.90
7720;DHT22;3902;49.474;8.616;2024-03-02T08:09:59;7.60;99.90
7720;DHT22;3902;49.474;8.616;2024-03-02T08:12:25;7.60;99.90
7720;DHT22;3902;49.474;8.616;2024-03-02T08:14:50;7.70;99.90
7720;DHT22;3902;49.474;8.616;2024-03-02T08:17:16;7.70;99.90
7720;DHT22;3902;49.474;8.616;2024-03-02T08:19:44;7.80;99.90
7720;DHT22;3902;49.474;8.616;2024-03-02T08:22:10;7.90;99.90
7720;DHT22;3902;49.474;8.616;2024-03-02T08:24:36;7.90;99.90
7720;DHT22;3902;49.474;8.616;2024-03-02T08:27:01;8.00;99.90
7720;DHT22;3902;49.474;8.616;2024-03-02T08:29:27;8.10;99.90
7720;DHT22;3902;49.474;8.616;2024-03-02T08:31:53;8.20;99.90
7720;DHT22;3902;49.474;8.616;2024-03-02T08:34:19;8.20;99.90
7720;DHT22;3902;49.474;8.616;2024-03-02T08:36:45;8.40;99.90
7720;DHT22;3902;49.474;8.616;2024-03-02T08:39:11;8.50;99.90
7720;DHT22;3902;49.474;8.616;2024-03-02T08:41:41;8.60;99.90
7720;DHT22;3902;49.474;8.616;2024-03-02T08:44:07;8.70;99.90
7720;DHT22;3902;49.474;8.616;2024-03-02T08:46:33;8.80;99.90
7720;DHT22;3902;49.474;8.616;2024-03-02T08:48:58;9.00;99.90
7720;DHT22;3902;49.474;8.616;2024-03-02T08:51:25;9.10;99.90
7720;DHT22;3902;49.474;8.616;2024-03-02T08:53:50;9.20;99.90
7720;DHT22;3902;49.474;8.616;2024-03-02T08:56:16;9.30;99.90
7720;DHT22;3902;49.474;8.616;2024-03-02T08:58:41;9.40;99.90
7720;DHT22;3902;49.474;8.616;2024-03-02T09:01:08;9.50;99.90
7720;DHT22;3902;49.474;8.616;2024-03-02T09:03:34;9.70;99.90
7720;DHT22;3902;49.474;8.616;2024-03-02T09:06:00;9.80;99.90
7720;DHT22;3902;49.474;8.616;2024-03-02T09:08:26;9.90;99.90
7720;DHT22;3902;49.474;8.616;2024-03-02T09:10:51;9.90;99.90
7720;DHT22;3902;49.474;8.616;2024-03-02T09:13:17;10.00;99.90
7720;DHT22;3902;49.474;8.616;2024-03-02T09:15:43;10.10;99.90
7720;DHT22;3902;49.474;8.616;2024-03-02T09:18:09;10.10;99.90
7720;DHT22;3902;49.474;8.616;2024-03-02T09:20:35;10.20;99.90
7720;DHT22;3902;49.474;8.616;2024-03-02T09:23:01;10.20;99.90
7720;DHT22;3902;49.474;8.616;2024-03-02T09:25:26;10.20;99.90
7720;DHT22;3902;49.474;8.616;2024-03-02T09:27:52;10.20;99.90
7720;DHT22;3902;49.474;8.616;2024-03-02T09:30:17;10.30;99.90
7720;DHT22;3902;49.474;8.616;2024-03-02T09:32:43;10.30;99.90
7720;DHT22;3902;49.474;8.616;2024-03-02T09:35:08;10.30;99.90
7720;DHT22;3902;49.474;8.616;2024-03-02T09:37:35;10.40;99.90
7720;DHT22;3902;49.474;8.616;2024-03-02T09:40:01;10.40;99.90
7720;DHT22;3902;49.474;8.616;2024-03-02T09:42:27;10.50;99.90
7720;DHT22;3902;49.474;8.616;2024-03-02T09:44:53;10.50;99.90
7720;DHT22;3902;49.474;8.616;2024-03-02T09:47:19;10.60;99.90
7720;DHT22;3902;49.474;8.616;2024-03-02T09:49:44;10.70;99.90
7720;DHT22;3902;49.474;8.616;2024-03-02T09:52:10;10.70;99.90
7720;DHT22;3902;49.474;8.616;2024-03-02T09:54:36;10.80;99.90
7720;DHT22;3902;49.474;8.616;2024-03-02T09:57:04;10.90;99.90
7720;DHT22;3902;49.474;8.616;2024-03-02T09:59:30;11.00;99.90
7720;DHT22;3902;49.474;8.616;2024-03-02T10:02:00;11.00;99.90
7720;DHT22;3902;49.474;8.616;2024-03-02T10:04:26;11.10;99.90
7720;DHT22;3902;49.474;8.616;2024-03-02T10:07:12;11.20;99.90
7720;DHT22;3902;49.474;8.616;2024-03-02T10:09:38;11.30;99.90
7720;DHT22;3902;49.474;8.616;2024-03-02T10:12:05;11.40;99.90
7720;DHT22;3902;49.474;8.616;2024-03-02T10:14:31;11.50;99.90
7720;DHT22;3902;49.474;8.616;2024-03-02T10:17:05;11.60;99.90
7720;DHT22;3902;49.474;8.616;2024-03-02T10:19:31;11.70;99.90
7720;DHT22;3902;49.474;8.616;2024-03-02T10:21:59;11.70;99.90
7720;DHT22;3902;49.474;8.616;2024-03-02T10:24:25;11.80;99.90
7720;DHT22;3902;49.474;8.616;2024-03-02T10:26:51;11.90;99.90
7720;DHT22;3902;49.474;8.616;2024-03-02T10:29:17;12.00;99.90
7720;DHT22;3902;49.474;8.616;2024-03-02T10:31:45;12.10;99.90
7720;DHT22;3902;49.474;8.616;2024-03-02T10:34:12;12.20;99.90
7720;DHT22;3902;49.474;8.616;2024-03-02T10:36:42;12.30;99.90
7720;DHT22;3902;49.474;8.616;2024-03-02T10:39:08;12.40;99.90
7720;DHT22;3902;49.474;8.616;2024-03-02T10:41:38;12.50;99.90
7720;DHT22;3902;49.474;8.616;2024-03-02T10:44:05;12.60;99.90
7720;DHT22;3902;49.474;8.616;2024-03-02T10:46:33;12.60;99.90
7720;DHT22;3902;49.474;8.616;2024-03-02T10:49:00;12.70;99.90
7720;DHT22;3902;49.474;8.616;2024-03-02T10:51:31;12.70;99.90
7720;DHT22;3902;49.474;8.616;2024-03-02T10:54:02;12.80;99.90
7720;DHT22;3902;49.474;8.616;2024-03-02T11:01:58;13.10;99.90
7720;DHT22;3902;49.474;8.616;2024-03-02T11:04:25;13.30;99.90
7720;DHT22;3902;49.474;8.616;2024-03-02T11:06:52;13.40;99.90
7720;DHT22;3902;49.474;8.616;2024-03-02T11:09:23;13.60;99.90
7720;DHT22;3902;49.474;8.616;2024-03-02T11:12:02;13.90;99.90
7720;DHT22;3902;49.474;8.616;2024-03-02T11:14:30;14.40;99.90
7720;DHT22;3902;49.474;8.616;2024-03-02T11:16:58;14.90;99.90
7720;DHT22;3902;49.474;8.616;2024-03-02T11:19:24;15.60;99.90
7720;DHT22;3902;49.474;8.616;2024-03-02T11:21:51;16.50;99.90
7720;DHT22;3902;49.474;8.616;2024-03-02T11:24:28;17.30;99.90
7720;DHT22;3902;49.474;8.616;2024-03-02T11:27:05;18.40;99.90
7720;DHT22;3902;49.474;8.616;2024-03-02T11:32:14;19.90;99.90
7720;DHT22;3902;49.474;8.616;2024-03-02T11:34:41;20.70;99.90
7720;DHT22;3902;49.474;8.616;2024-03-02T11:37:15;21.40;99.90
7720;DHT22;3902;49.474;8.616;2024-03-02T11:39:42;22.10;99.90
7720;DHT22;3902;49.474;8.616;2024-03-02T11:42:08;22.50;97.30
7720;DHT22;3902;49.474;8.616;2024-03-02T11:44:41;23.20;97.90
7720;DHT22;3902;49.474;8.616;2024-03-02T11:47:09;23.70;96.40
7720;DHT22;3902;49.474;8.616;2024-03-02T11:49:43;24.10;95.10
7720;DHT22;3902;49.474;8.616;2024-03-02T11:52:11;24.70;94.40
7720;DHT22;3902;49.474;8.616;2024-03-02T11:54:38;25.10;93.70
7720;DHT22;3902;49.474;8.616;2024-03-02T11:57:12;25.60;92.10
7720;DHT22;3902;49.474;8.616;2024-03-02T11:59:38;25.80;86.30
7720;DHT22;3902;49.474;8.616;2024-03-02T12:02:03;26.20;87.10
7720;DHT22;3902;49.474;8.616;2024-03-02T12:04:29;26.50;88.10
7720;DHT22;3902;49.474;8.616;2024-03-02T12:06:58;27.00;88.90
7720;DHT22;3902;49.474;8.616;2024-03-02T12:09:26;27.20;82.60
7720;DHT22;3902;49.474;8.616;2024-03-02T12:12:08;27.40;80.50
7720;DHT22;3902;49.474;8.616;2024-03-02T12:14:35;27.60;80.20
7720;DHT22;3902;49.474;8.616;2024-03-02T12:17:01;27.70;76.10
7720;DHT22;3902;49.474;8.616;2024-03-02T12:19:28;27.10;70.70
7720;DHT22;3902;49.474;8.616;2024-03-02T12:21:56;26.10;68.60
7720;DHT22;3902;49.474;8.616;2024-03-02T12:24:23;26.10;70.60
7720;DHT22;3902;49.474;8.616;2024-03-02T12:26:51;26.40;72.90
7720;DHT22;3902;49.474;8.616;2024-03-02T12:29:19;26.90;72.80
7720;DHT22;3902;49.474;8.616;2024-03-02T12:31:48;27.30;73.80
7720;DHT22;3902;49.474;8.616;2024-03-02T12:34:14;27.50;70.80
7720;DHT22;3902;49.474;8.616;2024-03-02T12:36:40;28.10;71.20
7720;DHT22;3902;49.474;8.616;2024-03-02T12:39:08;28.20;69.90
7720;DHT22;3902;49.474;8.616;2024-03-02T12:41:36;28.20;69.40
7720;DHT22;3902;49.474;8.616;2024-03-02T12:44:03;28.10;66.80
7720;DHT22;3902;49.474;8.616;2024-03-02T12:46:28;27.90;66.90
7720;DHT22;3902;49.474;8.616;2024-03-02T12:48:54;28.40;67.70
7720;DHT22;3902;49.474;8.616;2024-03-02T12:51:19;28.70;68.70
7720;DHT22;3902;49.474;8.616;2024-03-02T12:53:45;29.20;69.40
7720;DHT22;3902;49.474;8.616;2024-03-02T12:56:10;29.00;65.50
7720;DHT22;3902;49.474;8.616;2024-03-02T12:58:40;29.40;66.30
7720;DHT22;3902;49.474;8.616;2024-03-02T13:01:09;28.80;64.90
7720;DHT22;3902;49.474;8.616;2024-03-02T13:03:36;28.40;62.50
7720;DHT22;3902;49.474;8.616;2024-03-02T13:06:02;28.50;64.20
7720;DHT22;3902;49.474;8.616;2024-03-02T13:08:28;28.50;63.60
7720;DHT22;3902;49.474;8.616;2024-03-02T13:10:54;28.70;65.10
7720;DHT22;3902;49.474;8.616;2024-03-02T13:13:19;28.60;63.20
7720;DHT22;3902;49.474;8.616;2024-03-02T13:15:45;28.80;66.40
7720;DHT22;3902;49.474;8.616;2024-03-02T13:18:11;29.20;63.90
7720;DHT22;3902;49.474;8.616;2024-03-02T13:20:37;29.40;63.40
7720;DHT22;3902;49.474;8.616;2024-03-02T13:23:04;29.50;63.00
7720;DHT22;3902;49.474;8.616;2024-03-02T13:25:29;29.50;64.80
7720;DHT22;3902;49.474;8.616;2024-03-02T13:27:57;29.80;63.20
7720;DHT22;3902;49.474;8.616;2024-03-02T13:30:22;29.50;62.60
7720;DHT22;3902;49.474;8.616;2024-03-02T13:32:48;28.90;61.80
7720;DHT22;3902;49.474;8.616;2024-03-02T13:35:13;28.40;63.20
7720;DHT22;3902;49.474;8.616;2024-03-02T13:37:39;28.70;63.40
7720;DHT22;3902;49.474;8.616;2024-03-02T13:40:05;29.20;64.50
7720;DHT22;3902;49.474;8.616;2024-03-02T13:42:31;29.40;64.70
7720;DHT22;3902;49.474;8.616;2024-03-02T13:44:56;29.50;63.10
7720;DHT22;3902;49.474;8.616;2024-03-02T13:47:22;29.80;63.70
7720;DHT22;3902;49.474;8.616;2024-03-02T13:49:47;29.60;64.00
7720;DHT22;3902;49.474;8.616;2024-03-02T13:52:14;29.90;62.00
7720;DHT22;3902;49.474;8.616;2024-03-02T13:54:41;29.70;61.90
7720;DHT22;3902;49.474;8.616;2024-03-02T13:57:07;29.90;61.70
7720;DHT22;3902;49.474;8.616;2024-03-02T13:59:34;30.00;62.00
7720;DHT22;3902;49.474;8.616;2024-03-02T14:02:03;29.80;60.50
7720;DHT22;3902;49.474;8.616;2024-03-02T14:04:36;29.50;60.80
7720;DHT22;3902;49.474;8.616;2024-03-02T14:07:02;29.90;62.20
7720;DHT22;3902;49.474;8.616;2024-03-02T14:09:28;30.10;60.70
7720;DHT22;3902;49.474;8.616;2024-03-02T14:11:54;30.20;61.30
7720;DHT22;3902;49.474;8.616;2024-03-02T14:14:21;30.40;61.30
7720;DHT22;3902;49.474;8.616;2024-03-02T14:16:46;30.60;60.50
7720;DHT22;3902;49.474;8.616;2024-03-02T14:19:12;30.40;61.20
7720;DHT22;3902;49.474;8.616;2024-03-02T14:21:40;29.80;59.10
7720;DHT22;3902;49.474;8.616;2024-03-02T14:24:06;29.20;59.90
7720;DHT22;3902;49.474;8.616;2024-03-02T14:26:35;29.10;61.70
7720;DHT22;3902;49.474;8.616;2024-03-02T14:29:02;28.40;61.50
7720;DHT22;3902;49.474;8.616;2024-03-02T14:31:28;28.40;62.40
7720;DHT22;3902;49.474;8.616;2024-03-02T14:33:54;28.30;62.20
7720;DHT22;3902;49.474;8.616;2024-03-02T14:36:19;28.20;62.30
7720;DHT22;3902;49.474;8.616;2024-03-02T14:38:45;28.00;61.50
7720;DHT22;3902;49.474;8.616;2024-03-02T14:41:11;28.20;62.20
7720;DHT22;3902;49.474;8.616;2024-03-02T14:43:37;28.00;61.70
7720;DHT22;3902;49.474;8.616;2024-03-02T14:46:03;28.00;62.30
7720;DHT22;3902;49.474;8.616;2024-03-02T14:48:29;28.00;62.90
7720;DHT22;3902;49.474;8.616;2024-03-02T14:50:55;28.00;63.50
7720;DHT22;3902;49.474;8.616;2024-03-02T14:53:20;28.10;64.20
7720;DHT22;3902;49.474;8.616;2024-03-02T14:55:46;28.20;63.50
7720;DHT22;3902;49.474;8.616;2024-03-02T14:58:12;28.30;63.40
7720;DHT22;3902;49.474;8.616;2024-03-02T15:00:37;28.20;63.40
7720;DHT22;3902;49.474;8.616;2024-03-02T15:03:04;28.30;64.60
7720;DHT22;3902;49.474;8.616;2024-03-02T15:05:31;28.10;62.60
7720;DHT22;3902;49.474;8.616;2024-03-02T15:07:57;28.00;62.90
7720;DHT22;3902;49.474;8.616;2024-03-02T15:10:24;27.40;62.30
7720;DHT22;3902;49.474;8.616;2024-03-02T15:12:50;27.10;63.80
7720;DHT22;3902;49.474;8.616;2024-03-02T15:15:16;26.80;64.20
7720;DHT22;3902;49.474;8.616;2024-03-02T15:17:42;26.30;64.90
7720;DHT22;3902;49.474;8.616;2024-03-02T15:20:08;25.70;64.80
7720;DHT22;3902;49.474;8.616;2024-03-02T15:22:34;25.10;66.80
7720;DHT22;3902;49.474;8.616;2024-03-02T15:24:59;24.90;68.20
7720;DHT22;3902;49.474;8.616;2024-03-02T15:27:25;24.50;68.60
7720;DHT22;3902;49.474;8.616;2024-03-02T15:29:52;23.90;69.50
7720;DHT22;3902;49.474;8.616;2024-03-02T15:32:18;23.60;70.70
7720;DHT22;3902;49.474;8.616;2024-03-02T15:34:44;23.20;70.30
7720;DHT22;3902;49.474;8.616;2024-03-02T15:37:09;22.80;70.80
7720;DHT22;3902;49.474;8.616;2024-03-02T15:39:35;22.30;71.70
7720;DHT22;3902;49.474;8.616;2024-03-02T15:42:00;22.10;73.30
7720;DHT22;3902;49.474;8.616;2024-03-02T15:44:27;22.00;73.80
7720;DHT22;3902;49.474;8.616;2024-03-02T15:46:52;21.70;74.50
7720;DHT22;3902;49.474;8.616;2024-03-02T15:49:18;21.50;74.10
7720;DHT22;3902;49.474;8.616;2024-03-02T15:51:43;21.20;74.70
7720;DHT22;3902;49.474;8.616;2024-03-02T15:54:10;21.00;76.10
7720;DHT22;3902;49.474;8.616;2024-03-02T15:56:36;20.80;76.10
7720;DHT22;3902;49.474;8.616;2024-03-02T15:59:02;20.70;77.20
7720;DHT22;3902;49.474;8.616;2024-03-02T16:01:30;20.50;77.60
7720;DHT22;3902;49.474;8.616;2024-03-02T16:03:56;20.40;78.70
7720;DHT22;3902;49.474;8.616;2024-03-02T16:06:22;20.20;78.70
7720;DHT22;3902;49.474;8.616;2024-03-02T16:08:47;20.10;80.10
7720;DHT22;3902;49.474;8.616;2024-03-02T16:11:13;20.00;81.30
7720;DHT22;3902;49.474;8.616;2024-03-02T16:13:38;19.70;80.90
7720;DHT22;3902;49.474;8.616;2024-03-02T16:16:04;19.60;82.10